createdAt,value
2019-02-11T00:02:26.002Z,95892.36
2019-02-11T00:04:57.288Z,95911.05
2019-02-11T00:07:28.921Z,95904.26
2019-02-11T00:10:00.298Z,95908.08
2019-02-11T00:12:31.607Z,95917.88
2019-02-11T00:15:03.063Z,95917.92
2019-02-11T00:17:35.137Z,95926.80
2019-02-11T00:20:06.883Z,95935.73
2019-02-11T00:22:38.131Z,95934.11
2019-02-11T00:25:09.987Z,95923.10
2019-02-11T00:27:41.355Z,95938.06
2019-02-11T00:30:12.869Z,95930.41
2019-02-11T00:32:44.379Z,95930.00
2019-02-11T00:35:15.629Z,95945.66
2019-02-11T00:37:47.641Z,95946.17
2019-02-11T00:40:19.320Z,95945.64
2019-02-11T00:42:51.022Z,95956.31
2019-02-11T00:45:23.746Z,95955.92
2019-02-11T00:47:55.147Z,95951.17
2019-02-11T00:50:26.642Z,95960.16
2019-02-11T00:52:58.020Z,95959.34
2019-02-11T00:55:29.397Z,95977.59
2019-02-11T00:58:00.661Z,95973.73
2019-02-11T01:00:32.129Z,95976.33
2019-02-11T01:03:03.481Z,95981.02
2019-02-11T01:05:34.707Z,95979.73
2019-02-11T01:08:05.996Z,95984.39
2019-02-11T01:10:37.258Z,95980.95
2019-02-11T01:13:08.851Z,95983.91
2019-02-11T01:15:40.391Z,95979.98
2019-02-11T01:18:11.660Z,95982.53
2019-02-11T01:20:42.933Z,95979.14
2019-02-11T01:23:14.250Z,95990.16
2019-02-11T01:25:45.699Z,95985.98
2019-02-11T01:28:17.247Z,95983.03
2019-02-11T01:30:48.649Z,95990.77
2019-02-11T01:33:19.995Z,95989.97
2019-02-11T01:35:51.327Z,95985.27
2019-02-11T01:38:22.555Z,95985.66
2019-02-11T01:40:54.158Z,95978.83
2019-02-11T01:43:25.520Z,95971.23
2019-02-11T01:45:56.829Z,95966.98
2019-02-11T01:48:28.133Z,95977.55
2019-02-11T01:50:59.479Z,95975.47
2019-02-11T01:53:31.175Z,95968.63
2019-02-11T01:56:02.536Z,95969.94
2019-02-11T01:58:34.199Z,95964.43
2019-02-11T02:01:05.543Z,95963.10
2019-02-11T02:03:36.988Z,95965.38
2019-02-11T02:06:08.312Z,95971.34
2019-02-11T02:08:39.875Z,95948.09
2019-02-11T02:11:11.543Z,95960.44
2019-02-11T02:13:44.803Z,95973.20
2019-02-11T02:16:15.900Z,95980.45
2019-02-11T02:18:47.483Z,95977.43
2019-02-11T02:21:19.000Z,95972.33
2019-02-11T02:23:50.303Z,95977.78
2019-02-11T02:26:21.822Z,95981.50
2019-02-11T02:28:53.507Z,95978.48
2019-02-11T02:31:25.737Z,95981.56
2019-02-11T02:33:57.464Z,95978.20
2019-02-11T02:36:28.683Z,95981.89
2019-02-11T02:39:00.101Z,96000.57
2019-02-11T02:41:31.823Z,95999.00
2019-02-11T02:44:03.178Z,95999.00
2019-02-11T02:46:34.485Z,96012.18
2019-02-11T02:49:05.844Z,95999.43
2019-02-11T02:51:37.589Z,96001.21
2019-02-11T02:54:09.320Z,96006.38
2019-02-11T02:56:40.683Z,96012.24
2019-02-11T02:59:12.040Z,96016.42
2019-02-11T03:01:43.609Z,96007.42
2019-02-11T03:04:15.326Z,96022.33
2019-02-11T03:06:46.600Z,96012.99
2019-02-11T03:09:17.935Z,96018.91
2019-02-11T03:11:49.257Z,96015.88
2019-02-11T03:14:20.646Z,96028.70
2019-02-11T03:16:52.021Z,96015.41
2019-02-11T03:19:23.723Z,96026.88
2019-02-11T03:21:55.116Z,96047.77
2019-02-11T03:24:26.510Z,96027.81
2019-02-11T03:26:57.965Z,96040.58
2019-02-11T03:29:29.362Z,96040.12
2019-02-11T03:32:01.047Z,96047.35
2019-02-11T03:34:32.411Z,96055.36
2019-02-11T03:37:03.820Z,96067.31
2019-02-11T03:39:35.508Z,96074.91
2019-02-11T03:42:06.907Z,96076.72
2019-02-11T03:44:38.210Z,96087.66
2019-02-11T03:47:09.524Z,96103.28
2019-02-11T03:49:41.009Z,96098.53
2019-02-11T03:52:12.591Z,96096.91
2019-02-11T03:54:43.985Z,96105.38
2019-02-11T03:57:15.442Z,96110.94
2019-02-11T03:59:46.810Z,96112.56
2019-02-11T04:02:18.396Z,96127.84
2019-02-11T04:04:49.912Z,96123.53
2019-02-11T04:07:21.326Z,96131.98
2019-02-11T04:09:52.771Z,96125.53
2019-02-11T04:12:24.198Z,96133.98
2019-02-11T04:14:55.533Z,96133.48
2019-02-11T04:17:26.954Z,96135.64
2019-02-11T04:19:58.375Z,96139.41
2019-02-11T04:22:29.713Z,96128.72
2019-02-11T04:25:01.363Z,96116.23
2019-02-11T04:27:33.256Z,96124.11
2019-02-11T04:30:04.833Z,96126.59
2019-02-11T04:32:36.146Z,96134.06
2019-02-11T04:35:08.187Z,96130.60
2019-02-11T04:37:39.482Z,96139.91
2019-02-11T04:40:12.025Z,96148.45
2019-02-11T04:42:43.854Z,96158.48
2019-02-11T04:45:15.859Z,96151.73
2019-02-11T04:47:47.277Z,96167.45
2019-02-11T04:50:18.532Z,96154.55
2019-02-11T04:52:49.897Z,96181.77
2019-02-11T04:55:21.620Z,96173.65
2019-02-11T04:57:52.886Z,96185.06
2019-02-11T05:00:24.652Z,96192.66
2019-02-11T05:02:56.305Z,96203.23
2019-02-11T05:05:28.731Z,96206.91
2019-02-11T05:08:00.013Z,96219.60
2019-02-11T05:10:31.263Z,96216.59
2019-02-11T05:13:02.608Z,96221.59
2019-02-11T05:15:34.068Z,96241.05
2019-02-11T05:18:05.526Z,96227.05
2019-02-11T05:20:36.926Z,96238.65
2019-02-11T05:23:08.329Z,96242.42
2019-02-11T05:25:39.705Z,96248.70
2019-02-11T05:28:11.543Z,96255.97
2019-02-11T05:30:42.827Z,96265.25
2019-02-11T05:33:14.104Z,96273.19
2019-02-11T05:35:45.347Z,96270.98
2019-02-11T05:38:16.788Z,96282.55
2019-02-11T05:40:48.236Z,96290.28
2019-02-11T05:43:19.838Z,96289.03
2019-02-11T05:45:51.746Z,96311.28
2019-02-11T05:48:22.991Z,96312.44
2019-02-11T05:50:54.445Z,96325.19
2019-02-11T05:53:25.979Z,96338.03
2019-02-11T05:55:57.556Z,96335.46
2019-02-11T05:58:29.064Z,96338.88
2019-02-11T06:01:00.944Z,96352.17
2019-02-11T06:03:32.303Z,96369.18
2019-02-11T06:06:04.733Z,96373.95
2019-02-11T06:08:36.484Z,96393.75
2019-02-11T06:11:07.810Z,96401.83
2019-02-11T06:13:38.954Z,96398.34
2019-02-11T06:16:11.408Z,96401.02
2019-02-11T06:18:42.742Z,96407.10
2019-02-11T06:21:14.081Z,96414.55
2019-02-11T06:23:45.365Z,96422.83
2019-02-11T06:26:17.325Z,96429.12
2019-02-11T06:28:48.952Z,96437.19
2019-02-11T06:31:20.725Z,96446.28
2019-02-11T06:33:52.027Z,96450.67
2019-02-11T06:36:23.926Z,96460.58
2019-02-11T06:38:55.912Z,96459.95
2019-02-11T06:41:27.677Z,96473.53
2019-02-11T06:43:58.874Z,96470.59
2019-02-11T06:46:30.264Z,96487.39
2019-02-11T06:49:01.708Z,96488.06
2019-02-11T06:51:32.972Z,96499.51
2019-02-11T06:54:04.374Z,96505.56
2019-02-11T06:56:36.584Z,96510.78
2019-02-11T06:59:08.243Z,96509.88
2019-02-11T07:01:39.911Z,96513.77
2019-02-11T07:04:11.546Z,96520.89
2019-02-11T07:06:42.941Z,96531.04
2019-02-11T07:09:14.349Z,96540.41
2019-02-11T07:11:45.987Z,96542.52
2019-02-11T07:14:17.393Z,96548.05
2019-02-11T07:16:48.763Z,96554.84
2019-02-11T07:19:20.308Z,96573.55
2019-02-11T07:21:51.704Z,96570.27
2019-02-11T07:24:23.031Z,96579.62
2019-02-11T07:26:54.510Z,96580.89
2019-02-11T07:29:25.976Z,96585.64
2019-02-11T07:31:57.278Z,96588.66
2019-02-11T07:34:28.488Z,96590.73
2019-02-11T07:36:59.642Z,96602.95
2019-02-11T07:39:31.860Z,96608.00
2019-02-11T07:42:27.997Z,96613.00
2019-02-11T07:45:02.158Z,96610.49
2019-02-11T07:47:33.475Z,96624.92
2019-02-11T07:50:04.861Z,96628.67
2019-02-11T07:52:36.152Z,96627.17
2019-02-11T07:55:07.578Z,96636.69
2019-02-11T07:57:39.138Z,96630.83
2019-02-11T08:00:11.044Z,96641.75
2019-02-11T08:02:42.269Z,96646.37
2019-02-11T08:05:13.594Z,96652.00
2019-02-11T08:07:45.272Z,96663.02
2019-02-11T08:10:16.816Z,96665.20
2019-02-11T08:12:47.961Z,96670.06
2019-02-11T08:15:19.094Z,96665.00
2019-02-11T08:17:50.296Z,96674.66
2019-02-11T08:20:21.681Z,96678.75
2019-02-11T08:22:52.821Z,96684.78
2019-02-11T08:25:24.340Z,96688.30
2019-02-11T08:27:55.740Z,96693.91
2019-02-11T08:30:26.945Z,96703.25
2019-02-11T08:32:58.230Z,96701.84
2019-02-11T08:35:29.753Z,96709.08
2019-02-11T08:38:00.977Z,96710.86
2019-02-11T08:40:32.517Z,96715.70
2019-02-11T08:43:03.815Z,96715.95
2019-02-11T08:45:35.014Z,96724.22
2019-02-11T08:48:06.230Z,96726.50
2019-02-11T08:50:37.596Z,96729.92
2019-02-11T08:53:08.934Z,96740.44
2019-02-11T08:55:40.496Z,96739.05
2019-02-11T08:58:12.035Z,96743.07
2019-02-11T09:00:43.182Z,96754.31
2019-02-11T09:03:14.546Z,96753.40
2019-02-11T09:05:45.820Z,96752.80
2019-02-11T09:08:17.160Z,96754.94
2019-02-11T09:10:48.524Z,96763.26
2019-02-11T09:13:19.945Z,96770.17
2019-02-11T09:15:55.357Z,96777.81
2019-02-11T09:18:24.389Z,96784.78
2019-02-11T09:20:55.599Z,96786.22
2019-02-11T09:23:27.080Z,96792.70
2019-02-11T09:25:58.191Z,96794.45
2019-02-11T09:28:29.496Z,96799.92
2019-02-11T09:31:00.819Z,96802.42
2019-02-11T09:33:31.945Z,96810.11
2019-02-11T09:36:03.558Z,96813.48
2019-02-11T09:38:35.774Z,96825.16
2019-02-11T09:41:07.055Z,96823.78
2019-02-11T09:43:38.267Z,96826.44
2019-02-11T09:46:09.585Z,96836.60
2019-02-11T09:48:40.839Z,96838.02
2019-02-11T09:51:12.505Z,96848.28
2019-02-11T09:53:44.770Z,96855.31
2019-02-11T09:56:16.074Z,96868.15
2019-02-11T09:58:47.205Z,96875.03
2019-02-11T10:01:18.761Z,96880.17
2019-02-11T10:03:50.010Z,96881.44
2019-02-11T10:06:21.298Z,96894.98
2019-02-11T10:08:52.609Z,96903.13
2019-02-11T10:11:23.772Z,96909.46
2019-02-11T10:13:54.879Z,96909.03
2019-02-11T10:16:26.391Z,96924.58
2019-02-11T10:18:57.906Z,96924.64
2019-02-11T10:21:29.511Z,96926.13
2019-02-11T10:24:00.738Z,96933.06
2019-02-11T10:26:32.414Z,96930.80
2019-02-11T10:29:03.887Z,96934.62
2019-02-11T10:31:35.395Z,96948.42
2019-02-11T10:34:06.906Z,96945.52
2019-02-11T10:36:38.891Z,96956.02
2019-02-11T10:39:10.191Z,96956.94
2019-02-11T10:41:42.990Z,96956.94
2019-02-11T10:44:14.510Z,96955.42
2019-02-11T10:46:45.628Z,96960.20
2019-02-11T10:49:17.051Z,96959.80
2019-02-11T10:51:48.387Z,96967.19
2019-02-11T10:54:19.983Z,96978.41
2019-02-11T10:56:51.551Z,96972.73
2019-02-11T10:59:22.839Z,96975.23
2019-02-11T11:01:54.255Z,96972.98
2019-02-11T11:04:25.495Z,96972.58
2019-02-11T11:06:56.889Z,96971.52
2019-02-11T11:09:28.284Z,96980.84
2019-02-11T11:11:59.597Z,96977.16
2019-02-11T11:14:31.236Z,96990.02
2019-02-11T11:17:02.683Z,96981.09
2019-02-11T11:19:33.995Z,96993.38
2019-02-11T11:22:05.276Z,96999.61
2019-02-11T11:24:36.450Z,96996.73
2019-02-11T11:27:08.011Z,96996.80
2019-02-11T11:29:39.497Z,96990.09
2019-02-11T11:32:10.777Z,96986.66
2019-02-11T11:34:42.267Z,97005.87
2019-02-11T11:37:15.113Z,97006.66
2019-02-11T11:39:46.405Z,97004.26
2019-02-11T11:42:17.992Z,97004.34
2019-02-11T11:44:49.541Z,97009.00
2019-02-11T11:47:20.829Z,97022.27
2019-02-11T11:49:52.472Z,97020.25
2019-02-11T11:52:24.758Z,97017.45
2019-02-11T11:54:55.922Z,97023.28
2019-02-11T11:57:27.439Z,97018.21
2019-02-11T11:59:59.049Z,97019.92
2019-02-11T12:02:30.334Z,97017.86
2019-02-11T12:05:01.568Z,97020.39
2019-02-11T12:07:34.277Z,97017.03
2019-02-11T12:10:06.482Z,97025.37
2019-02-11T12:12:38.456Z,97021.44
2019-02-11T12:15:09.981Z,97025.84
2019-02-11T12:17:41.920Z,97042.63
2019-02-11T12:20:13.727Z,97046.72
2019-02-11T12:22:45.300Z,97053.85
2019-02-11T12:25:17.620Z,97050.56
2019-02-11T12:27:49.241Z,97062.80
2019-02-11T12:30:23.732Z,97073.81
2019-02-11T12:32:56.109Z,97063.88
2019-02-11T12:35:27.866Z,97062.49
2019-02-11T12:37:59.210Z,97071.77
2019-02-11T12:40:30.534Z,97081.26
2019-02-11T12:43:02.025Z,97083.08
2019-02-11T12:45:33.552Z,97087.92
2019-02-11T12:48:05.158Z,97093.95
2019-02-11T12:50:36.938Z,97095.59
2019-02-11T12:53:08.147Z,97100.20
2019-02-11T12:55:39.438Z,97093.05
2019-02-11T12:58:10.564Z,97103.72
2019-02-11T13:00:41.801Z,97111.87
2019-02-11T13:03:13.189Z,97109.79
2019-02-11T13:05:46.311Z,97093.13
2019-02-11T13:08:17.597Z,97109.34
2019-02-11T13:10:49.280Z,97101.61
2019-02-11T13:13:20.480Z,97101.17
2019-02-11T13:16:00.999Z,97111.17
2019-02-11T13:18:25.007Z,97114.56
2019-02-11T13:20:57.375Z,97115.75
2019-02-11T13:23:28.589Z,97125.34
2019-02-11T13:25:59.754Z,97122.64
2019-02-11T13:28:31.278Z,97125.39
2019-02-11T13:31:02.639Z,97137.55
2019-02-11T13:33:33.765Z,97130.91
2019-02-11T13:36:05.926Z,97148.88
2019-02-11T13:38:37.050Z,97152.41
2019-02-11T13:41:08.384Z,97157.89
2019-02-11T13:43:41.530Z,97164.69
2019-02-11T13:46:12.403Z,97166.98
2019-02-11T13:48:45.195Z,97164.95
2019-02-11T13:51:16.833Z,97179.64
2019-02-11T13:53:48.719Z,97183.70
2019-02-11T13:56:20.040Z,97189.48
2019-02-11T13:58:52.779Z,97194.74
2019-02-11T14:01:24.389Z,97198.88
2019-02-11T14:03:55.677Z,97208.83
2019-02-11T14:06:27.321Z,97209.48
2019-02-11T14:08:58.618Z,97211.64
2019-02-11T14:11:30.565Z,97210.28
2019-02-11T14:14:04.030Z,97214.77
2019-02-11T14:16:35.640Z,97218.92
2019-02-11T14:19:07.529Z,97221.88
2019-02-11T14:21:39.194Z,97232.93
2019-02-11T14:24:10.439Z,97223.41
2019-02-11T14:26:41.669Z,97229.09
2019-02-11T14:29:13.128Z,97253.07
2019-02-11T14:31:44.990Z,97237.72
2019-02-11T14:34:16.355Z,97257.02
2019-02-11T14:36:47.811Z,97255.92
2019-02-11T14:39:19.437Z,97250.02
2019-02-11T14:41:50.895Z,97268.98
2019-02-11T14:44:22.181Z,97273.50
2019-02-11T14:46:53.857Z,97275.97
2019-02-11T14:49:25.078Z,97286.19
2019-02-11T14:51:56.828Z,97287.90
2019-02-11T14:54:28.108Z,97288.37
2019-02-11T14:56:59.453Z,97293.48
2019-02-11T14:59:30.675Z,97292.92
2019-02-11T15:02:01.817Z,97295.56
2019-02-11T15:04:33.279Z,97306.38
2019-02-11T15:07:04.834Z,97307.02
2019-02-11T15:09:35.978Z,97315.87
2019-02-11T15:12:07.385Z,97321.73
2019-02-11T15:14:38.689Z,97330.30
2019-02-11T15:17:09.893Z,97342.54
2019-02-11T15:19:41.040Z,97339.30
2019-02-11T15:22:12.452Z,97342.78
2019-02-11T15:24:43.951Z,97349.30
2019-02-11T15:27:17.290Z,97361.19
2019-02-11T15:29:48.204Z,97361.23
2019-02-11T15:32:19.515Z,97362.86
2019-02-11T15:34:50.747Z,97378.59
2019-02-11T15:37:22.237Z,97377.77
2019-02-11T15:39:53.767Z,97374.77
2019-02-11T15:42:24.945Z,97383.74
2019-02-11T15:44:56.861Z,97383.58
2019-02-11T15:47:27.992Z,97390.92
2019-02-11T15:49:59.137Z,97392.02
2019-02-11T15:52:30.376Z,97397.66
2019-02-11T15:55:01.570Z,97400.20
2019-02-11T15:57:32.791Z,97409.97
2019-02-11T16:00:04.373Z,97409.97
2019-02-11T16:02:35.850Z,97418.14
2019-02-11T16:05:08.118Z,97425.27
2019-02-11T16:07:39.345Z,97427.74
2019-02-11T16:10:16.743Z,97431.52
2019-02-11T16:12:48.053Z,97433.72
2019-02-11T16:15:19.463Z,97443.36
2019-02-11T16:17:50.922Z,97439.13
2019-02-11T16:20:22.303Z,97443.31
2019-02-11T16:22:53.609Z,97455.98
2019-02-11T16:25:25.236Z,97456.81
2019-02-11T16:28:16.134Z,97464.03
2019-02-11T16:30:47.701Z,97470.36
2019-02-11T16:33:19.100Z,97470.02
2019-02-11T16:35:50.427Z,97477.80
2019-02-11T16:38:21.713Z,97479.07
2019-02-11T16:40:53.159Z,97475.06
2019-02-11T16:43:24.539Z,97477.56
2019-02-11T16:45:55.967Z,97478.36
2019-02-11T16:48:27.410Z,97487.30
2019-02-11T16:50:59.346Z,97480.13
2019-02-11T16:53:30.982Z,97484.88
2019-02-11T16:56:02.405Z,97474.72
2019-02-11T16:58:34.008Z,97489.28
2019-02-11T17:01:05.616Z,97497.20
2019-02-11T17:03:37.204Z,97497.14
2019-02-11T17:06:08.709Z,97490.64
2019-02-11T17:08:40.486Z,97506.91
2019-02-11T17:11:12.130Z,97500.97
2019-02-11T17:13:44.177Z,97510.65
2019-02-11T17:16:15.606Z,97508.84
2019-02-11T17:18:46.982Z,97512.14
2019-02-11T17:21:18.381Z,97520.13
2019-02-11T17:23:49.793Z,97518.41
2019-02-11T17:26:21.121Z,97534.70
2019-02-11T17:28:52.476Z,97528.66
2019-02-11T17:31:24.065Z,97530.23
2019-02-11T17:33:55.547Z,97537.80
2019-02-11T17:36:26.943Z,97540.38
2019-02-11T17:38:58.301Z,97556.21
2019-02-11T17:41:29.874Z,97546.01
2019-02-11T17:44:01.268Z,97548.70
2019-02-11T17:46:33.957Z,97553.59
2019-02-11T17:49:05.554Z,97548.94
2019-02-11T17:51:37.936Z,97549.97
2019-02-11T17:54:09.601Z,97549.58
2019-02-11T17:56:42.422Z,97558.90
2019-02-11T17:59:13.952Z,97575.42
2019-02-11T18:01:45.403Z,97577.55
2019-02-11T18:04:17.152Z,97580.72
2019-02-11T18:06:49.208Z,97577.63
2019-02-11T18:09:20.526Z,97585.63
2019-02-11T18:11:52.248Z,97592.00
2019-02-11T18:14:23.627Z,97597.50
2019-02-11T18:16:55.356Z,97603.53
2019-02-11T18:19:26.779Z,97601.91
2019-02-11T18:21:58.168Z,97604.27
2019-02-11T18:24:29.791Z,97606.23
2019-02-11T18:27:01.120Z,97609.71
2019-02-11T18:29:32.609Z,97611.23
2019-02-11T18:32:03.937Z,97612.45
2019-02-11T18:34:35.268Z,97622.80
2019-02-11T18:37:06.708Z,97633.64
2019-02-11T18:39:38.939Z,97624.41
2019-02-11T18:42:10.239Z,97632.66
2019-02-11T18:44:41.746Z,97634.23
2019-02-11T18:47:13.392Z,97641.73
2019-02-11T18:49:44.767Z,97641.73
2019-02-11T18:52:16.378Z,97651.59
2019-02-11T18:54:47.993Z,97649.52
2019-02-11T18:57:19.676Z,97659.78
2019-02-11T18:59:50.928Z,97665.22
2019-02-11T19:02:22.389Z,97667.97
2019-02-11T19:04:53.919Z,97667.77
2019-02-11T19:07:25.454Z,97667.91
2019-02-11T19:09:57.051Z,97660.37
2019-02-11T19:12:29.025Z,97676.61
2019-02-11T19:15:00.490Z,97684.59
2019-02-11T19:17:31.933Z,97688.76
2019-02-11T19:20:03.688Z,97690.37
2019-02-11T19:22:35.182Z,97699.52
2019-02-11T19:25:07.678Z,97695.06
2019-02-11T19:27:39.134Z,97701.71
2019-02-11T19:30:18.066Z,97708.73
2019-02-11T19:32:49.436Z,97724.33
2019-02-11T19:35:20.791Z,97727.14
2019-02-11T19:37:54.401Z,97730.42
2019-02-11T19:40:26.235Z,97736.80
2019-02-11T19:42:57.959Z,97754.92
2019-02-11T19:45:29.759Z,97756.98
2019-02-11T19:48:01.208Z,97762.06
2019-02-11T19:50:32.600Z,97767.04
2019-02-11T19:53:03.901Z,97765.46
2019-02-11T19:55:35.373Z,97774.87
2019-02-11T19:58:06.883Z,97773.05
2019-02-11T20:00:38.284Z,97775.26
2019-02-11T20:03:09.791Z,97766.22
2019-02-11T20:05:41.456Z,97773.11
2019-02-11T20:08:12.769Z,97779.69
2019-02-11T20:10:44.040Z,97794.83
2019-02-11T20:13:15.473Z,97798.65
2019-02-11T20:15:46.920Z,97800.63
2019-02-11T20:18:18.763Z,97808.69
2019-02-11T20:20:50.356Z,97807.13
2019-02-11T20:23:21.822Z,97817.88
2019-02-11T20:25:53.277Z,97833.62
2019-02-11T20:28:24.924Z,97833.10
2019-02-11T20:30:56.961Z,97847.41
2019-02-11T20:33:28.663Z,97859.58
2019-02-11T20:36:00.241Z,97861.18
2019-02-11T20:38:31.648Z,97869.31
2019-02-11T20:41:03.196Z,97863.41
2019-02-11T20:43:34.819Z,97885.70
2019-02-11T20:46:06.200Z,97881.23
2019-02-11T20:48:38.134Z,97883.45
2019-02-11T20:51:09.468Z,97893.02
2019-02-11T20:53:40.871Z,97888.31
2019-02-11T20:56:12.305Z,97898.34
2019-02-11T20:58:48.144Z,97896.06
2019-02-11T21:01:19.505Z,97894.85
2019-02-11T21:03:51.066Z,97894.52
2019-02-11T21:06:22.557Z,97901.61
2019-02-11T21:08:54.774Z,97908.30
2019-02-11T21:11:26.328Z,97901.58
2019-02-11T21:13:57.660Z,97914.21
2019-02-11T21:16:29.610Z,97908.82
2019-02-11T21:19:00.950Z,97909.21
2019-02-11T21:21:32.389Z,97901.34
2019-02-11T21:24:03.858Z,97913.36
2019-02-11T21:26:35.249Z,97920.92
2019-02-11T21:29:07.945Z,97924.25
2019-02-11T21:31:39.476Z,97917.40
2019-02-11T21:34:10.771Z,97935.78
2019-02-11T21:36:42.466Z,97947.00
2019-02-11T21:39:13.922Z,97939.45
2019-02-11T21:41:45.392Z,97937.80
2019-02-11T21:44:21.822Z,97945.90
2019-02-11T21:46:53.355Z,97942.55
2019-02-11T21:49:27.924Z,97943.45
2019-02-11T21:51:59.405Z,97953.53
2019-02-11T21:54:30.836Z,97951.30
2019-02-11T21:57:02.655Z,97948.38
2019-02-11T21:59:34.171Z,97952.83
2019-02-11T22:02:05.586Z,97956.97
2019-02-11T22:04:36.974Z,97960.28
2019-02-11T22:07:08.851Z,97965.77
2019-02-11T22:09:40.560Z,97954.95
2019-02-11T22:12:12.577Z,97953.19
2019-02-11T22:14:44.645Z,97939.98
2019-02-11T22:17:18.728Z,97938.57
2019-02-11T22:19:50.113Z,97941.19
2019-02-11T22:22:22.087Z,97944.13
2019-02-11T22:24:53.913Z,97939.35
2019-02-11T22:27:25.324Z,97944.02
2019-02-11T22:29:58.320Z,97942.74
2019-02-11T22:32:29.790Z,97948.28
2019-02-11T22:35:01.240Z,97952.91
2019-02-11T22:37:33.307Z,97968.06
2019-02-11T22:40:05.376Z,97974.42
2019-02-11T22:42:36.722Z,97984.58
2019-02-11T22:45:11.137Z,97983.36
2019-02-11T22:47:43.010Z,97986.24
2019-02-11T22:50:15.819Z,98000.15
2019-02-11T22:52:47.871Z,97992.84
2019-02-11T22:55:19.557Z,97990.66
2019-02-11T22:57:50.942Z,97994.86
2019-02-11T23:00:54.580Z,97986.02
2019-02-11T23:03:26.026Z,97994.84
2019-02-11T23:05:57.462Z,97987.03
2019-02-11T23:08:30.735Z,97990.58
2019-02-11T23:11:02.197Z,97988.81
2019-02-11T23:13:33.706Z,97991.04
2019-02-11T23:16:06.233Z,98001.25
2019-02-11T23:18:37.920Z,98001.87
2019-02-11T23:21:09.458Z,97997.09
2019-02-11T23:23:41.364Z,98013.56
2019-02-11T23:26:12.729Z,98005.95
2019-02-11T23:28:44.485Z,98009.63
2019-02-11T23:31:16.063Z,98011.72
2019-02-11T23:33:47.736Z,98015.77
2019-02-11T23:36:19.282Z,98011.77
2019-02-11T23:38:51.147Z,97995.64
2019-02-11T23:41:22.615Z,98016.66
2019-02-11T23:43:54.323Z,98027.27
2019-02-11T23:46:26.255Z,98033.63
2019-02-11T23:48:57.580Z,98029.43
2019-02-11T23:51:28.968Z,98043.59
2019-02-11T23:54:00.646Z,98052.89
2019-02-11T23:56:31.988Z,98055.78
2019-02-11T23:59:03.262Z,98053.44
